sensor_id;sensor_type;location;lat;lon;timestamp;pressure;altitude;pressure_sealevel;temperature;humidity
12215;BME280;6170;42.206;24.142;2022-12-20T00:00:48;101073.94;;;1.84;74.66
12215;BME280;6170;42.206;24.142;2022-12-20T00:03:15;101113.53;;;1.99;74.37
12215;BME280;6170;42.206;24.142;2022-12-20T00:05:42;101071.38;;;1.82;74.89
12215;BME280;6170;42.206;24.142;2022-12-20T00:08:10;101078.59;;;1.64;74.86
12215;BME280;6170;42.206;24.142;2022-12-20T00:10:37;101058.63;;;1.74;74.45
12215;BME280;6170;42.206;24.142;2022-12-20T00:13:04;101081.09;;;1.67;74.77
12215;BME280;6170;42.206;24.142;2022-12-20T00:15:33;101059.97;;;1.52;75.19
12215;BME280;6170;42.206;24.142;2022-12-20T00:18:00;101128.59;;;1.83;76.19
12215;BME280;6170;42.206;24.142;2022-12-20T00:20:27;101087.25;;;1.52;76.94
12215;BME280;6170;42.206;24.142;2022-12-20T00:22:54;101127.66;;;1.84;77.39
12215;BME280;6170;42.206;24.142;2022-12-20T00:25:22;101094.50;;;1.49;75.36
12215;BME280;6170;42.206;24.142;2022-12-20T00:27:49;101072.38;;;1.20;74.87
12215;BME280;6170;42.206;24.142;2022-12-20T00:30:16;101088.56;;;1.29;75.85
12215;BME280;6170;42.206;24.142;2022-12-20T00:32:44;101092.72;;;1.49;74.55
12215;BME280;6170;42.206;24.142;2022-12-20T00:35:11;101087.69;;;1.45;73.97
12215;BME280;6170;42.206;24.142;2022-12-20T00:37:38;101135.16;;;1.46;74.35
12215;BME280;6170;42.206;24.142;2022-12-20T00:40:06;101092.75;;;1.18;74.73
12215;BME280;6170;42.206;24.142;2022-12-20T00:42:33;101089.97;;;1.05;75.51
12215;BME280;6170;42.206;24.142;2022-12-20T00:45:00;101067.31;;;1.01;75.41
12215;BME280;6170;42.206;24.142;2022-12-20T00:47:27;101084.06;;;1.31;75.44
12215;BME280;6170;42.206;24.142;2022-12-20T00:49:55;101072.03;;;1.42;75.79
12215;BME280;6170;42.206;24.142;2022-12-20T00:52:21;101076.72;;;1.66;74.74
12215;BME280;6170;42.206;24.142;2022-12-20T00:54:48;101075.41;;;1.44;75.80
12215;BME280;6170;42.206;24.142;2022-12-20T00:57:15;101076.88;;;1.49;75.23
12215;BME280;6170;42.206;24.142;2022-12-20T00:59:42;101112.94;;;1.80;75.93
12215;BME280;6170;42.206;24.142;2022-12-20T01:02:09;101066.03;;;1.54;75.48
12215;BME280;6170;42.206;24.142;2022-12-20T01:04:35;101108.91;;;1.73;75.00
12215;BME280;6170;42.206;24.142;2022-12-20T01:07:03;101063.69;;;1.33;76.24
12215;BME280;6170;42.206;24.142;2022-12-20T01:09:30;101064.13;;;1.42;75.90
12215;BME280;6170;42.206;24.142;2022-12-20T01:11:57;101106.00;;;1.77;75.68
12215;BME280;6170;42.206;24.142;2022-12-20T01:14:24;101066.66;;;1.43;75.06
12215;BME280;6170;42.206;24.142;2022-12-20T01:16:51;101064.78;;;1.45;75.00
12215;BME280;6170;42.206;24.142;2022-12-20T01:19:17;101074.13;;;1.51;74.45
12215;BME280;6170;42.206;24.142;2022-12-20T01:21:45;101073.56;;;1.30;75.34
12215;BME280;6170;42.206;24.142;2022-12-20T01:24:14;101073.97;;;1.38;76.17
12215;BME280;6170;42.206;24.142;2022-12-20T01:26:41;101071.31;;;1.24;74.89
12215;BME280;6170;42.206;24.142;2022-12-20T01:29:09;101059.13;;;1.06;75.08
12215;BME280;6170;42.206;24.142;2022-12-20T01:31:35;101105.44;;;1.27;75.03
12215;BME280;6170;42.206;24.142;2022-12-20T01:34:02;101051.72;;;0.97;75.51
12215;BME280;6170;42.206;24.142;2022-12-20T01:36:30;101044.72;;;0.80;75.82
12215;BME280;6170;42.206;24.142;2022-12-20T01:38:59;101038.44;;;0.82;75.59
12215;BME280;6170;42.206;24.142;2022-12-20T01:41:30;101087.22;;;1.22;75.48
12215;BME280;6170;42.206;24.142;2022-12-20T01:43:58;101043.81;;;0.81;75.90
12215;BME280;6170;42.206;24.142;2022-12-20T01:46:26;101075.84;;;1.06;75.82
12215;BME280;6170;42.206;24.142;2022-12-20T01:48:58;101034.97;;;0.82;76.10
12215;BME280;6170;42.206;24.142;2022-12-20T01:51:26;101038.88;;;0.90;76.85
12215;BME280;6170;42.206;24.142;2022-12-20T01:53:58;101074.50;;;1.29;76.12
12215;BME280;6170;42.206;24.142;2022-12-20T01:56:28;101012.66;;;0.87;76.83
12215;BME280;6170;42.206;24.142;2022-12-20T01:58:55;101018.53;;;0.77;77.87
12215;BME280;6170;42.206;24.142;2022-12-20T02:01:23;101016.72;;;0.93;77.67
12215;BME280;6170;42.206;24.142;2022-12-20T02:03:51;101055.53;;;1.07;76.36
12215;BME280;6170;42.206;24.142;2022-12-20T02:06:21;101006.16;;;0.93;76.23
12215;BME280;6170;42.206;24.142;2022-12-20T02:08:49;101003.38;;;0.96;76.85
12215;BME280;6170;42.206;24.142;2022-12-20T02:11:36;100999.72;;;0.83;77.18
12215;BME280;6170;42.206;24.142;2022-12-20T02:14:15;101041.66;;;1.19;76.68
12215;BME280;6170;42.206;24.142;2022-12-20T02:16:51;100996.28;;;0.97;76.98
12215;BME280;6170;42.206;24.142;2022-12-20T02:19:45;101006.72;;;0.84;77.57
12215;BME280;6170;42.206;24.142;2022-12-20T02:22:25;100999.16;;;1.08;76.96
12215;BME280;6170;42.206;24.142;2022-12-20T02:25:20;100997.22;;;0.96;77.27
12215;BME280;6170;42.206;24.142;2022-12-20T02:28:01;101004.38;;;1.09;77.03
12215;BME280;6170;42.206;24.142;2022-12-20T02:30:34;100999.22;;;1.22;77.21
12215;BME280;6170;42.206;24.142;2022-12-20T02:33:07;100996.22;;;1.28;77.23
12215;BME280;6170;42.206;24.142;2022-12-20T02:35:37;101040.00;;;1.62;76.88
12215;BME280;6170;42.206;24.142;2022-12-20T02:38:25;100997.63;;;1.19;76.76
12215;BME280;6170;42.206;24.142;2022-12-20T02:40:55;100998.59;;;1.32;77.07
12215;BME280;6170;42.206;24.142;2022-12-20T02:43:24;101045.41;;;1.74;77.27
12215;BME280;6170;42.206;24.142;2022-12-20T02:46:12;101041.31;;;1.55;76.91
12215;BME280;6170;42.206;24.142;2022-12-20T02:48:40;100991.22;;;1.23;77.12
12215;BME280;6170;42.206;24.142;2022-12-20T02:51:08;100981.44;;;1.10;77.44
12215;BME280;6170;42.206;24.142;2022-12-20T02:53:37;101028.31;;;1.36;78.07
12215;BME280;6170;42.206;24.142;2022-12-20T02:56:09;100954.25;;;0.78;78.29
12215;BME280;6170;42.206;24.142;2022-12-20T02:58:43;101024.91;;;0.88;78.91
12215;BME280;6170;42.206;24.142;2022-12-20T03:01:21;101021.84;;;0.80;80.26
12215;BME280;6170;42.206;24.142;2022-12-20T03:03:50;100976.81;;;0.68;80.49
12215;BME280;6170;42.206;24.142;2022-12-20T03:06:17;100968.72;;;0.86;79.93
12215;BME280;6170;42.206;24.142;2022-12-20T03:08:43;100974.06;;;0.85;79.17
12215;BME280;6170;42.206;24.142;2022-12-20T03:11:11;101022.91;;;1.08;79.01
12215;BME280;6170;42.206;24.142;2022-12-20T03:13:37;100965.47;;;0.81;78.76
12215;BME280;6170;42.206;24.142;2022-12-20T03:16:05;100970.75;;;0.81;78.91
12215;BME280;6170;42.206;24.142;2022-12-20T03:18:33;101013.06;;;0.80;79.33
12215;BME280;6170;42.206;24.142;2022-12-20T03:21:00;100951.66;;;0.47;79.62
12215;BME280;6170;42.206;24.142;2022-12-20T03:23:27;100966.88;;;0.41;80.35
12215;BME280;6170;42.206;24.142;2022-12-20T03:25:54;101009.75;;;0.76;80.38
12215;BME280;6170;42.206;24.142;2022-12-20T03:28:21;100957.97;;;0.44;80.04
12215;BME280;6170;42.206;24.142;2022-12-20T03:30:48;100963.47;;;0.39;79.88
12215;BME280;6170;42.206;24.142;2022-12-20T03:33:15;100966.38;;;0.35;80.55
12215;BME280;6170;42.206;24.142;2022-12-20T03:35:43;100958.00;;;0.27;80.06
12215;BME280;6170;42.206;24.142;2022-12-20T03:38:09;100962.28;;;0.29;80.13
12215;BME280;6170;42.206;24.142;2022-12-20T03:40:36;101008.25;;;0.57;80.75
12215;BME280;6170;42.206;24.142;2022-12-20T03:43:03;100970.50;;;0.23;80.25
12215;BME280;6170;42.206;24.142;2022-12-20T03:45:30;101011.78;;;0.40;80.76
12215;BME280;6170;42.206;24.142;2022-12-20T03:47:56;100965.56;;;0.02;81.36
12215;BME280;6170;42.206;24.142;2022-12-20T03:50:23;100960.97;;;0.05;81.56
12215;BME280;6170;42.206;24.142;2022-12-20T03:52:51;100974.75;;;0.10;81.78
12215;BME280;6170;42.206;24.142;2022-12-20T03:55:18;101026.41;;;0.30;81.72
12215;BME280;6170;42.206;24.142;2022-12-20T03:57:45;100967.06;;;-0.10;82.40
12215;BME280;6170;42.206;24.142;2022-12-20T04:00:13;100970.88;;;-0.16;82.86
12215;BME280;6170;42.206;24.142;2022-12-20T04:02:40;100986.28;;;-0.08;83.14
12215;BME280;6170;42.206;24.142;2022-12-20T04:05:07;100967.72;;;-0.22;82.99
12215;BME280;6170;42.206;24.142;2022-12-20T04:07:34;100970.94;;;-0.17;82.69
12215;BME280;6170;42.206;24.142;2022-12-20T04:10:03;100967.97;;;-0.44;84.30
12215;BME280;6170;42.206;24.142;2022-12-20T04:12:29;100968.34;;;-0.34;83.78
12215;BME280;6170;42.206;24.142;2022-12-20T04:14:56;100984.28;;;-0.20;83.90
12215;BME280;6170;42.206;24.142;2022-12-20T04:17:23;100959.69;;;-0.36;83.97
12215;BME280;6170;42.206;24.142;2022-12-20T04:19:50;100978.25;;;-0.22;83.63
12215;BME280;6170;42.206;24.142;2022-12-20T04:22:16;100975.94;;;-0.28;84.16
12215;BME280;6170;42.206;24.142;2022-12-20T04:24:43;101009.38;;;-0.13;84.73
12215;BME280;6170;42.206;24.142;2022-12-20T04:27:11;100970.34;;;-0.39;84.71
12215;BME280;6170;42.206;24.142;2022-12-20T04:29:38;101021.63;;;-0.12;84.55
12215;BME280;6170;42.206;24.142;2022-12-20T04:32:05;100968.91;;;-0.45;84.46
12215;BME280;6170;42.206;24.142;2022-12-20T04:34:32;101023.75;;;-0.19;84.17
12215;BME280;6170;42.206;24.142;2022-12-20T04:36:58;100973.88;;;-0.56;84.83
12215;BME280;6170;42.206;24.142;2022-12-20T04:39:25;101018.09;;;-0.28;85.37
12215;BME280;6170;42.206;24.142;2022-12-20T04:41:52;100967.91;;;-0.60;85.43
12215;BME280;6170;42.206;24.142;2022-12-20T04:44:20;100975.97;;;-0.63;85.19
12215;BME280;6170;42.206;24.142;2022-12-20T04:46:47;100954.06;;;-0.63;85.21
12215;BME280;6170;42.206;24.142;2022-12-20T04:49:13;101024.34;;;-0.31;84.99
12215;BME280;6170;42.206;24.142;2022-12-20T04:51:40;100975.13;;;-0.63;85.78
12215;BME280;6170;42.206;24.142;2022-12-20T04:54:07;100967.34;;;-0.66;85.86
12215;BME280;6170;42.206;24.142;2022-12-20T04:56:33;100975.97;;;-0.63;85.73
12215;BME280;6170;42.206;24.142;2022-12-20T04:59:00;100972.97;;;-0.72;85.36
12215;BME280;6170;42.206;24.142;2022-12-20T05:01:28;100976.03;;;-0.64;85.50
12215;BME280;6170;42.206;24.142;2022-12-20T05:03:55;101031.19;;;-0.27;84.91
12215;BME280;6170;42.206;24.142;2022-12-20T05:06:22;101015.53;;;-0.30;84.82
12215;BME280;6170;42.206;24.142;2022-12-20T05:08:48;100975.44;;;-0.69;85.24
12215;BME280;6170;42.206;24.142;2022-12-20T05:11:15;100971.09;;;-0.70;85.28
12215;BME280;6170;42.206;24.142;2022-12-20T05:13:42;100975.97;;;-0.63;85.45
12215;BME280;6170;42.206;24.142;2022-12-20T05:16:09;101017.00;;;-0.41;85.05
12215;BME280;6170;42.206;24.142;2022-12-20T05:18:37;101020.16;;;-0.35;85.23
12215;BME280;6170;42.206;24.142;2022-12-20T05:21:04;100983.94;;;-0.64;85.22
12215;BME280;6170;42.206;24.142;2022-12-20T05:23:48;101020.97;;;-0.50;86.04
12215;BME280;6170;42.206;24.142;2022-12-20T05:26:33;100956.13;;;-1.04;86.01
12215;BME280;6170;42.206;24.142;2022-12-20T05:29:02;100995.22;;;-0.79;86.19
12215;BME280;6170;42.206;24.142;2022-12-20T05:31:29;100969.84;;;-0.98;86.41
12215;BME280;6170;42.206;24.142;2022-12-20T05:33:57;100994.31;;;-0.78;86.49
12215;BME280;6170;42.206;24.142;2022-12-20T05:36:24;100971.19;;;-0.89;86.70
12215;BME280;6170;42.206;24.142;2022-12-20T05:38:51;100970.94;;;-0.84;86.25
12215;BME280;6170;42.206;24.142;2022-12-20T05:41:18;100978.22;;;-0.72;85.92
12215;BME280;6170;42.206;24.142;2022-12-20T05:43:45;101017.25;;;-0.46;86.11
12215;BME280;6170;42.206;24.142;2022-12-20T05:46:12;100965.75;;;-0.86;85.62
12215;BME280;6170;42.206;24.142;2022-12-20T05:48:38;101023.72;;;-0.53;85.33
12215;BME280;6170;42.206;24.142;2022-12-20T05:51:07;100971.47;;;-0.78;85.43
12215;BME280;6170;42.206;24.142;2022-12-20T05:53:33;100970.38;;;-0.91;85.52
12215;BME280;6170;42.206;24.142;2022-12-20T05:56:00;100980.91;;;-0.91;86.14
12215;BME280;6170;42.206;24.142;2022-12-20T05:58:27;100976.09;;;-1.00;86.33
12215;BME280;6170;42.206;24.142;2022-12-20T06:00:54;100974.34;;;-0.82;86.21
12215;BME280;6170;42.206;24.142;2022-12-20T06:03:21;100975.03;;;-0.79;86.31
12215;BME280;6170;42.206;24.142;2022-12-20T06:05:48;100975.44;;;-0.69;86.23
12215;BME280;6170;42.206;24.142;2022-12-20T06:08:16;100970.84;;;-0.66;86.20
12215;BME280;6170;42.206;24.142;2022-12-20T06:10:43;101021.66;;;-0.29;86.10
12215;BME280;6170;42.206;24.142;2022-12-20T06:13:10;100966.41;;;-0.48;86.27
12215;BME280;6170;42.206;24.142;2022-12-20T06:15:37;101020.22;;;-0.02;85.95
12215;BME280;6170;42.206;24.142;2022-12-20T06:18:05;100967.13;;;-0.12;84.49
12215;BME280;6170;42.206;24.142;2022-12-20T06:20:32;101014.47;;;0.07;84.58
12215;BME280;6170;42.206;24.142;2022-12-20T06:23:00;100971.75;;;-0.32;85.06
12215;BME280;6170;42.206;24.142;2022-12-20T06:25:29;100982.47;;;-0.53;85.88
12215;BME280;6170;42.206;24.142;2022-12-20T06:27:55;101030.88;;;0.12;84.92
12215;BME280;6170;42.206;24.142;2022-12-20T06:30:22;100977.53;;;-0.26;85.24
12215;BME280;6170;42.206;24.142;2022-12-20T06:32:49;101034.97;;;-0.15;84.99
12215;BME280;6170;42.206;24.142;2022-12-20T06:35:16;100973.00;;;-0.22;84.59
12215;BME280;6170;42.206;24.142;2022-12-20T06:37:43;101007.75;;;-0.16;85.00
12215;BME280;6170;42.206;24.142;2022-12-20T06:40:11;100977.66;;;-0.27;84.60
12215;BME280;6170;42.206;24.142;2022-12-20T06:42:40;100985.22;;;-0.21;84.84
12215;BME280;6170;42.206;24.142;2022-12-20T06:45:07;100979.66;;;-0.32;84.79
12215;BME280;6170;42.206;24.142;2022-12-20T06:47:34;101020.00;;;-0.15;84.56
12215;BME280;6170;42.206;24.142;2022-12-20T06:50:02;100981.22;;;-0.28;85.15
12215;BME280;6170;42.206;24.142;2022-12-20T06:52:28;101027.34;;;-0.04;84.81
12215;BME280;6170;42.206;24.142;2022-12-20T06:54:55;100979.13;;;-0.39;85.22
12215;BME280;6170;42.206;24.142;2022-12-20T06:57:22;100976.03;;;-0.64;85.83
12215;BME280;6170;42.206;24.142;2022-12-20T06:59:50;100980.59;;;-0.33;85.20
12215;BME280;6170;42.206;24.142;2022-12-20T07:02:17;101017.28;;;-0.13;85.68
12215;BME280;6170;42.206;24.142;2022-12-20T07:04:44;101026.03;;;-0.13;86.41
12215;BME280;6170;42.206;24.142;2022-12-20T07:07:11;101023.78;;;-0.03;86.03
12215;BME280;6170;42.206;24.142;2022-12-20T07:09:38;101008.63;;;0.80;84.53
12215;BME280;6170;42.206;24.142;2022-12-20T07:12:07;100968.28;;;1.82;81.02
12215;BME280;6170;42.206;24.142;2022-12-20T07:14:34;101004.38;;;3.07;77.20
12215;BME280;6170;42.206;24.142;2022-12-20T07:17:02;100952.47;;;3.05;74.43
12215;BME280;6170;42.206;24.142;2022-12-20T07:19:29;100961.81;;;3.63;72.61
12215;BME280;6170;42.206;24.142;2022-12-20T07:21:56;100998.69;;;3.66;72.99
12215;BME280;6170;42.206;24.142;2022-12-20T07:24:23;100996.06;;;4.03;72.50
12215;BME280;6170;42.206;24.142;2022-12-20T07:26:50;100951.41;;;3.97;71.88
12215;BME280;6170;42.206;24.142;2022-12-20T07:29:16;100998.72;;;3.91;72.91
12215;BME280;6170;42.206;24.142;2022-12-20T07:31:43;100949.03;;;2.90;74.97
12215;BME280;6170;42.206;24.142;2022-12-20T07:34:11;100951.75;;;3.15;72.55
12215;BME280;6170;42.206;24.142;2022-12-20T07:36:38;100953.72;;;2.46;72.95
12215;BME280;6170;42.206;24.142;2022-12-20T07:39:05;100997.31;;;2.67;75.25
12215;BME280;6170;42.206;24.142;2022-12-20T07:41:32;100956.41;;;2.85;74.93
12215;BME280;6170;42.206;24.142;2022-12-20T07:43:59;100950.69;;;2.79;75.50
12215;BME280;6170;42.206;24.142;2022-12-20T07:46:26;100949.94;;;2.36;75.33
12215;BME280;6170;42.206;24.142;2022-12-20T07:48:53;100961.78;;;2.02;76.55
12215;BME280;6170;42.206;24.142;2022-12-20T07:51:23;100982.09;;;2.70;74.83
12215;BME280;6170;42.206;24.142;2022-12-20T07:53:56;100949.31;;;2.59;75.90
12215;BME280;6170;42.206;24.142;2022-12-20T07:56:25;100919.03;;;3.29;73.37
12215;BME280;6170;42.206;24.142;2022-12-20T07:58:54;100939.44;;;3.67;70.97
12215;BME280;6170;42.206;24.142;2022-12-20T08:01:23;100925.41;;;3.27;70.19
12215;BME280;6170;42.206;24.142;2022-12-20T08:03:53;100984.69;;;3.76;72.76
12215;BME280;6170;42.206;24.142;2022-12-20T08:06:23;100982.03;;;4.27;70.49
12215;BME280;6170;42.206;24.142;2022-12-20T08:08:53;100982.59;;;3.16;72.98
12215;BME280;6170;42.206;24.142;2022-12-20T08:11:23;100935.47;;;3.72;71.34
12215;BME280;6170;42.206;24.142;2022-12-20T08:13:50;100967.59;;;4.18;70.65
12215;BME280;6170;42.206;24.142;2022-12-20T08:16:17;100968.53;;;4.30;68.59
12215;BME280;6170;42.206;24.142;2022-12-20T08:18:44;100934.19;;;2.34;70.67
12215;BME280;6170;42.206;24.142;2022-12-20T08:21:11;100912.69;;;3.44;71.30
12215;BME280;6170;42.206;24.142;2022-12-20T08:23:40;100960.47;;;3.30;72.94
12215;BME280;6170;42.206;24.142;2022-12-20T08:26:07;100922.31;;;3.33;74.34
12215;BME280;6170;42.206;24.142;2022-12-20T08:28:33;100962.44;;;3.66;74.10
12215;BME280;6170;42.206;24.142;2022-12-20T08:31:00;100958.16;;;3.51;72.57
12215;BME280;6170;42.206;24.142;2022-12-20T08:33:27;100950.13;;;3.65;71.60
12215;BME280;6170;42.206;24.142;2022-12-20T08:35:58;100945.44;;;3.81;70.79
12215;BME280;6170;42.206;24.142;2022-12-20T08:38:26;100914.38;;;3.33;69.29
12215;BME280;6170;42.206;24.142;2022-12-20T08:41:00;100938.66;;;3.90;72.14
12215;BME280;6170;42.206;24.142;2022-12-20T08:43:27;100906.84;;;3.39;70.72
12215;BME280;6170;42.206;24.142;2022-12-20T08:45:54;100928.81;;;4.41;69.75
12215;BME280;6170;42.206;24.142;2022-12-20T08:48:21;100898.00;;;4.38;71.81
12215;BME280;6170;42.206;24.142;2022-12-20T08:50:53;100927.16;;;4.64;69.33
12215;BME280;6170;42.206;24.142;2022-12-20T08:53:20;100930.06;;;3.99;68.93
12215;BME280;6170;42.206;24.142;2022-12-20T08:55:47;100925.47;;;4.14;68.80
12215;BME280;6170;42.206;24.142;2022-12-20T08:58:15;100886.25;;;4.42;69.86
12215;BME280;6170;42.206;24.142;2022-12-20T09:00:42;100890.66;;;4.55;67.91
12215;BME280;6170;42.206;24.142;2022-12-20T09:03:08;100884.06;;;4.95;69.01
12215;BME280;6170;42.206;24.142;2022-12-20T09:05:42;100883.94;;;4.96;67.16
12215;BME280;6170;42.206;24.142;2022-12-20T09:08:09;100915.06;;;5.18;67.94
12215;BME280;6170;42.206;24.142;2022-12-20T09:10:36;100869.56;;;5.34;67.55
12215;BME280;6170;42.206;24.142;2022-12-20T09:13:03;100918.91;;;5.60;67.13
12215;BME280;6170;42.206;24.142;2022-12-20T09:15:32;100868.91;;;5.88;63.02
12215;BME280;6170;42.206;24.142;2022-12-20T09:17:59;100868.09;;;5.30;64.74
12215;BME280;6170;42.206;24.142;2022-12-20T09:20:26;100901.25;;;5.59;67.19
12215;BME280;6170;42.206;24.142;2022-12-20T09:22:53;100865.53;;;4.82;66.57
12215;BME280;6170;42.206;24.142;2022-12-20T09:25:20;100861.59;;;5.34;65.43
12215;BME280;6170;42.206;24.142;2022-12-20T09:27:46;100856.44;;;5.99;64.28
12215;BME280;6170;42.206;24.142;2022-12-20T09:30:13;100897.66;;;6.27;64.00
12215;BME280;6170;42.206;24.142;2022-12-20T09:32:42;100874.66;;;6.37;62.53
12215;BME280;6170;42.206;24.142;2022-12-20T09:35:08;100836.81;;;5.44;64.05
12215;BME280;6170;42.206;24.142;2022-12-20T09:37:35;100874.78;;;5.58;64.26
12215;BME280;6170;42.206;24.142;2022-12-20T09:40:03;100824.25;;;5.80;64.73
12215;BME280;6170;42.206;24.142;2022-12-20T09:42:30;100864.75;;;5.61;65.34
12215;BME280;6170;42.206;24.142;2022-12-20T09:45:00;100815.59;;;6.32;63.10
12215;BME280;6170;42.206;24.142;2022-12-20T09:47:30;100851.06;;;6.32;63.74
12215;BME280;6170;42.206;24.142;2022-12-20T09:50:02;100807.25;;;6.25;63.97
12215;BME280;6170;42.206;24.142;2022-12-20T09:52:52;100842.19;;;6.75;63.82
12215;BME280;6170;42.206;24.142;2022-12-20T09:55:27;100794.03;;;5.92;62.87
12215;BME280;6170;42.206;24.142;2022-12-20T09:58:09;100796.47;;;5.51;64.24
12215;BME280;6170;42.206;24.142;2022-12-20T10:00:44;100830.25;;;5.15;63.91
12215;BME280;6170;42.206;24.142;2022-12-20T10:03:15;100818.91;;;4.78;65.97
12215;BME280;6170;42.206;24.142;2022-12-20T10:05:50;100810.34;;;5.43;66.45
12215;BME280;6170;42.206;24.142;2022-12-20T10:08:25;100773.84;;;5.90;65.83
12215;BME280;6170;42.206;24.142;2022-12-20T10:10:58;100762.16;;;6.24;64.15
12215;BME280;6170;42.206;24.142;2022-12-20T10:13:42;100780.75;;;5.92;63.25
12215;BME280;6170;42.206;24.142;2022-12-20T10:16:23;100795.69;;;5.04;64.04
12215;BME280;6170;42.206;24.142;2022-12-20T10:19:03;100746.94;;;4.59;63.96
12215;BME280;6170;42.206;24.142;2022-12-20T10:21:40;100735.47;;;4.59;64.21
12215;BME280;6170;42.206;24.142;2022-12-20T10:24:12;100735.84;;;4.30;65.18
12215;BME280;6170;42.206;24.142;2022-12-20T10:26:42;100777.06;;;4.82;65.24
12215;BME280;6170;42.206;24.142;2022-12-20T10:29:10;100722.19;;;4.24;64.76
12215;BME280;6170;42.206;24.142;2022-12-20T10:31:38;100720.78;;;4.31;65.57
12215;BME280;6170;42.206;24.142;2022-12-20T10:34:05;100751.75;;;4.54;65.95
12215;BME280;6170;42.206;24.142;2022-12-20T10:36:35;100711.66;;;4.46;65.78
12215;BME280;6170;42.206;24.142;2022-12-20T10:39:04;100721.31;;;5.04;64.67
12215;BME280;6170;42.206;24.142;2022-12-20T10:41:33;100713.97;;;4.50;65.26
12215;BME280;6170;42.206;24.142;2022-12-20T10:44:17;100700.19;;;4.45;64.05
12215;BME280;6170;42.206;24.142;2022-12-20T10:46:47;100702.78;;;4.80;64.44
12215;BME280;6170;42.206;24.142;2022-12-20T10:49:26;100691.19;;;4.70;64.52
12215;BME280;6170;42.206;24.142;2022-12-20T10:51:56;100692.41;;;5.33;63.26
12215;BME280;6170;42.206;24.142;2022-12-20T10:54:29;100706.03;;;5.62;62.70
12215;BME280;6170;42.206;24.142;2022-12-20T10:56:58;100671.88;;;5.24;62.67
12215;BME280;6170;42.206;24.142;2022-12-20T10:59:30;100662.66;;;5.50;62.44
12215;BME280;6170;42.206;24.142;2022-12-20T11:01:58;100661.31;;;6.10;61.46
12215;BME280;6170;42.206;24.142;2022-12-20T11:04:27;100645.78;;;5.29;62.22
12215;BME280;6170;42.206;24.142;2022-12-20T11:06:57;100649.44;;;5.06;64.19
12215;BME280;6170;42.206;24.142;2022-12-20T11:09:28;100689.66;;;5.01;63.72
12215;BME280;6170;42.206;24.142;2022-12-20T11:12:00;100645.78;;;5.72;61.75
12215;BME280;6170;42.206;24.142;2022-12-20T11:14:27;100686.03;;;5.90;62.37
12215;BME280;6170;42.206;24.142;2022-12-20T11:16:55;100626.00;;;5.65;61.16
12215;BME280;6170;42.206;24.142;2022-12-20T11:19:33;100666.28;;;5.60;64.28
12215;BME280;6170;42.206;24.142;2022-12-20T11:22:12;100667.91;;;6.15;61.36
12215;BME280;6170;42.206;24.142;2022-12-20T11:24:50;100617.84;;;5.77;61.22
12215;BME280;6170;42.206;24.142;2022-12-20T11:27:27;100596.13;;;6.04;62.90
12215;BME280;6170;42.206;24.142;2022-12-20T11:30:16;100644.31;;;5.90;61.88
12215;BME280;6170;42.206;24.142;2022-12-20T11:32:58;100593.44;;;6.04;61.49
12215;BME280;6170;42.206;24.142;2022-12-20T11:35:35;100597.63;;;5.00;62.09
12215;BME280;6170;42.206;24.142;2022-12-20T11:38:13;100615.06;;;5.79;62.37
12215;BME280;6170;42.206;24.142;2022-12-20T11:40:48;100591.91;;;5.27;61.48
12215;BME280;6170;42.206;24.142;2022-12-20T11:43:28;100581.38;;;5.68;60.02
12215;BME280;6170;42.206;24.142;2022-12-20T11:46:12;100571.50;;;5.59;60.86
12215;BME280;6170;42.206;24.142;2022-12-20T11:48:53;100578.72;;;5.68;58.76
12215;BME280;6170;42.206;24.142;2022-12-20T11:51:25;100566.72;;;4.88;60.54
12215;BME280;6170;42.206;24.142;2022-12-20T11:54:00;100569.50;;;4.97;59.65
12215;BME280;6170;42.206;24.142;2022-12-20T11:56:32;100554.47;;;5.30;58.75
12215;BME280;6170;42.206;24.142;2022-12-20T11:59:02;100535.13;;;5.60;57.58
12215;BME280;6170;42.206;24.142;2022-12-20T12:01:36;100548.41;;;5.28;58.57
12215;BME280;6170;42.206;24.142;2022-12-20T12:04:09;100541.09;;;5.09;59.50
12215;BME280;6170;42.206;24.142;2022-12-20T12:06:40;100539.16;;;5.00;61.04
12215;BME280;6170;42.206;24.142;2022-12-20T12:09:16;100580.69;;;5.66;58.53
12215;BME280;6170;42.206;24.142;2022-12-20T12:11:49;100549.16;;;5.19;57.94
12215;BME280;6170;42.206;24.142;2022-12-20T12:14:26;100533.66;;;4.70;60.85
12215;BME280;6170;42.206;24.142;2022-12-20T12:16:56;100576.34;;;5.11;61.35
12215;BME280;6170;42.206;24.142;2022-12-20T12:19:28;100521.13;;;5.26;60.59
12215;BME280;6170;42.206;24.142;2022-12-20T12:22:00;100529.00;;;5.16;62.37
12215;BME280;6170;42.206;24.142;2022-12-20T12:24:33;100518.47;;;5.78;60.78
12215;BME280;6170;42.206;24.142;2022-12-20T12:27:02;100523.34;;;5.41;60.03
12215;BME280;6170;42.206;24.142;2022-12-20T12:29:32;100513.25;;;5.56;58.96
12215;BME280;6170;42.206;24.142;2022-12-20T12:32:03;100522.47;;;5.09;59.42
12215;BME280;6170;42.206;24.142;2022-12-20T12:34:47;100503.34;;;4.94;59.97
12215;BME280;6170;42.206;24.142;2022-12-20T12:37:47;100551.03;;;5.39;60.13
12215;BME280;6170;42.206;24.142;2022-12-20T12:40:59;100510.34;;;4.95;61.38
12215;BME280;6170;42.206;24.142;2022-12-20T12:43:44;100508.28;;;4.88;59.59
12215;BME280;6170;42.206;24.142;2022-12-20T12:46:16;100511.25;;;5.17;60.09
12215;BME280;6170;42.206;24.142;2022-12-20T12:48:47;100552.84;;;5.38;58.85
12215;BME280;6170;42.206;24.142;2022-12-20T12:51:23;100502.50;;;4.94;60.77
12215;BME280;6170;42.206;24.142;2022-12-20T12:53:54;100504.03;;;4.96;60.95
12215;BME280;6170;42.206;24.142;2022-12-20T12:56:38;100531.16;;;4.68;60.68
12215;BME280;6170;42.206;24.142;2022-12-20T13:02:34;100501.81;;;4.47;60.46
12215;BME280;6170;42.206;24.142;2022-12-20T13:08:15;100546.50;;;4.42;62.15
12215;BME280;6170;42.206;24.142;2022-12-20T13:11:01;100505.59;;;4.45;60.42
12215;BME280;6170;42.206;24.142;2022-12-20T13:13:29;100556.50;;;4.72;59.86
12215;BME280;6170;42.206;24.142;2022-12-20T13:16:10;100551.16;;;4.39;62.08
12215;BME280;6170;42.206;24.142;2022-12-20T13:18:37;100513.28;;;4.15;61.62